Arthur City, Texas
Current Conditions -  °F | °C
As of 7:55 AM on Friday 19 Dec 2014 (Local Time) from KHHW Reporting Station
Haze Haze  
Wind Chill: 43°   Ceiling: 300
Heat Index: 46°   Visibility: 1.5mi
Dew Point: 44°   Wind: 5mph
Humidity: 93%   Direction: 80°E
Pressure: 30.19"   Gusts: NA
Location:  33.87°N, 95.51°W
Report Text: KHHW 191355Z AUTO 08004KT 1 1/2SM BR OVC003 08/07 A3019 RMK AO2 T00760066
Loading
Personal Weather Stations






























Interactive Weather Map New forecast layout! Learn more

10-Day Weather Forecast

Advertisements
Track Severe Weather on mobile